Startpagina
METAR-TAF:

METAR-TAF

Vliegvelden :

Hagåtña, Guam, Verenigde Staten

breedte: 13-29N, lengte: 144-48E, hoogte: 91 m

Actueel weer

Dit bericht is 1 uur en het 5 minuten geleden gemaakt, om 00:54 UTC
Wind 12 kt uit het oosten
Temperatuur 31°C
Vochtigheid 75%
Druk 1012 hPa
Zicht: 16.1 km
Onbewolkt

METAR: PGUM 260054Z 09012KT 10SM CLR 31/26 A2987 RMK AO2 SLP108 T03060261

Tijdstip: 11:59 (01:59 UTC)

Verwachting

Dit bericht is 2 uur en het 31 minuten geleden gemaakt, om 23:28 UTC
Verwachting geldig van 26 om 00 UTC tot 27 om 06 UTC
Wind 8 kt uit het oosten
Zicht: 10 km
Verspreide wolken op 2000 ft
Verspreide wolken op 7000 ft
Gebroken wolken op 13000 ft
buien in de omgeving
Van 26 om 0200 UTC
Wind 12 kt uit het oosten
Zicht: 10 km
Weinig wolken op 1800 ft
Verspreide wolken op 6000 ft
buien in de omgeving

TAF: PGUM 252328Z 2600/2706 09008KT P6SM VCSH SCT020 SCT070 BKN130 FM260200 08012KT P6SM VCSH FEW018 SCT060

Waarnemingen en weersverwachtingen van meer dan 4000 vliegvelden (METAR en TAF).

De beschikbare stations zijn de gele en rode punten op de kaart.

Ga met uw muis naar het station om de naam te zien.

Klik dan om waarnemingen en weersverwachtingen te zien.

kaart wijzigen: klik op de groene knoppen met een zwart kruis om in te zoomen, op de groene knop met een streepje om uit te zoomen of op de groene pijlen voor aangrenzende kaarten.


METAR-TAF: